sensor_id;sensor_type;location;lat;lon;timestamp;P1;durP1;ratioP1;P2;durP2;ratioP2
31424;SDS011;18054;51.572;7.372;2023-07-02T00:02:34;11.93;;;3.75;;
31424;SDS011;18054;51.572;7.372;2023-07-02T00:05:02;7.93;;;4.03;;
31424;SDS011;18054;51.572;7.372;2023-07-02T00:07:29;11.93;;;3.33;;
31424;SDS011;18054;51.572;7.372;2023-07-02T00:09:57;6.32;;;3.92;;
31424;SDS011;18054;51.572;7.372;2023-07-02T00:12:24;9.20;;;4.05;;
31424;SDS011;18054;51.572;7.372;2023-07-02T00:14:52;5.78;;;3.40;;
31424;SDS011;18054;51.572;7.372;2023-07-02T00:17:19;8.15;;;4.22;;
31424;SDS011;18054;51.572;7.372;2023-07-02T00:19:48;8.18;;;3.83;;
31424;SDS011;18054;51.572;7.372;2023-07-02T00:22:18;9.45;;;3.85;;
31424;SDS011;18054;51.572;7.372;2023-07-02T00:24:46;10.43;;;3.70;;
31424;SDS011;18054;51.572;7.372;2023-07-02T00:27:13;11.13;;;4.50;;
31424;SDS011;18054;51.572;7.372;2023-07-02T00:29:41;6.60;;;3.60;;
31424;SDS011;18054;51.572;7.372;2023-07-02T00:32:08;13.82;;;4.82;;
31424;SDS011;18054;51.572;7.372;2023-07-02T00:34:35;13.68;;;4.55;;
31424;SDS011;18054;51.572;7.372;2023-07-02T00:37:04;12.95;;;4.30;;
31424;SDS011;18054;51.572;7.372;2023-07-02T00:39:32;13.75;;;4.47;;
31424;SDS011;18054;51.572;7.372;2023-07-02T00:42:02;10.93;;;4.80;;
31424;SDS011;18054;51.572;7.372;2023-07-02T00:44:30;9.95;;;4.40;;
31424;SDS011;18054;51.572;7.372;2023-07-02T00:46:58;10.73;;;4.50;;
31424;SDS011;18054;51.572;7.372;2023-07-02T00:49:26;8.07;;;3.92;;
31424;SDS011;18054;51.572;7.372;2023-07-02T00:51:53;13.90;;;4.20;;
31424;SDS011;18054;51.572;7.372;2023-07-02T00:54:22;9.85;;;3.88;;
31424;SDS011;18054;51.572;7.372;2023-07-02T00:56:50;19.38;;;4.68;;
31424;SDS011;18054;51.572;7.372;2023-07-02T00:59:17;19.05;;;5.05;;
31424;SDS011;18054;51.572;7.372;2023-07-02T01:01:45;15.98;;;4.55;;
31424;SDS011;18054;51.572;7.372;2023-07-02T01:04:18;9.52;;;4.70;;
31424;SDS011;18054;51.572;7.372;2023-07-02T01:06:45;15.30;;;5.28;;
31424;SDS011;18054;51.572;7.372;2023-07-02T01:09:13;7.35;;;4.22;;
31424;SDS011;18054;51.572;7.372;2023-07-02T01:11:42;10.80;;;4.43;;
31424;SDS011;18054;51.572;7.372;2023-07-02T01:14:11;12.38;;;4.47;;
31424;SDS011;18054;51.572;7.372;2023-07-02T01:16:40;15.13;;;5.85;;
31424;SDS011;18054;51.572;7.372;2023-07-02T01:19:11;20.45;;;4.50;;
31424;SDS011;18054;51.572;7.372;2023-07-02T01:21:40;22.77;;;5.13;;
31424;SDS011;18054;51.572;7.372;2023-07-02T01:24:08;11.57;;;4.13;;
31424;SDS011;18054;51.572;7.372;2023-07-02T01:26:35;13.75;;;4.72;;
31424;SDS011;18054;51.572;7.372;2023-07-02T01:29:12;19.27;;;5.25;;
31424;SDS011;18054;51.572;7.372;2023-07-02T01:31:40;13.77;;;4.88;;
31424;SDS011;18054;51.572;7.372;2023-07-02T01:34:08;13.38;;;5.30;;
31424;SDS011;18054;51.572;7.372;2023-07-02T01:36:35;15.32;;;5.00;;
31424;SDS011;18054;51.572;7.372;2023-07-02T01:39:04;18.02;;;4.85;;
31424;SDS011;18054;51.572;7.372;2023-07-02T01:41:33;17.73;;;5.70;;
31424;SDS011;18054;51.572;7.372;2023-07-02T01:44:01;12.80;;;5.35;;
31424;SDS011;18054;51.572;7.372;2023-07-02T01:46:29;12.43;;;5.15;;
31424;SDS011;18054;51.572;7.372;2023-07-02T01:48:56;15.02;;;5.30;;
31424;SDS011;18054;51.572;7.372;2023-07-02T01:51:24;15.88;;;4.95;;
31424;SDS011;18054;51.572;7.372;2023-07-02T01:53:51;13.95;;;4.90;;
31424;SDS011;18054;51.572;7.372;2023-07-02T01:56:20;11.20;;;4.50;;
31424;SDS011;18054;51.572;7.372;2023-07-02T01:58:47;11.85;;;5.00;;
31424;SDS011;18054;51.572;7.372;2023-07-02T02:01:15;14.40;;;4.30;;
31424;SDS011;18054;51.572;7.372;2023-07-02T02:03:43;12.68;;;4.78;;
31424;SDS011;18054;51.572;7.372;2023-07-02T02:06:10;15.35;;;5.35;;
31424;SDS011;18054;51.572;7.372;2023-07-02T02:08:38;11.10;;;4.75;;
31424;SDS011;18054;51.572;7.372;2023-07-02T02:11:05;16.00;;;5.45;;
31424;SDS011;18054;51.572;7.372;2023-07-02T02:13:34;14.90;;;4.93;;
31424;SDS011;18054;51.572;7.372;2023-07-02T02:16:02;16.52;;;5.30;;
31424;SDS011;18054;51.572;7.372;2023-07-02T02:20:57;12.00;;;4.72;;
31424;SDS011;18054;51.572;7.372;2023-07-02T02:23:24;21.83;;;5.55;;
31424;SDS011;18054;51.572;7.372;2023-07-02T02:25:52;16.25;;;5.15;;
31424;SDS011;18054;51.572;7.372;2023-07-02T02:28:19;15.35;;;5.68;;
31424;SDS011;18054;51.572;7.372;2023-07-02T02:33:16;14.35;;;4.93;;
31424;SDS011;18054;51.572;7.372;2023-07-02T02:35:44;22.25;;;6.70;;
31424;SDS011;18054;51.572;7.372;2023-07-02T02:38:13;16.73;;;5.57;;
31424;SDS011;18054;51.572;7.372;2023-07-02T02:40:41;17.20;;;5.05;;
31424;SDS011;18054;51.572;7.372;2023-07-02T02:43:13;18.10;;;5.47;;
31424;SDS011;18054;51.572;7.372;2023-07-02T02:45:44;16.67;;;5.75;;
31424;SDS011;18054;51.572;7.372;2023-07-02T02:48:11;19.77;;;6.57;;
31424;SDS011;18054;51.572;7.372;2023-07-02T02:50:40;21.60;;;6.30;;
31424;SDS011;18054;51.572;7.372;2023-07-02T02:53:09;21.83;;;6.40;;
31424;SDS011;18054;51.572;7.372;2023-07-02T02:55:37;20.52;;;7.22;;
31424;SDS011;18054;51.572;7.372;2023-07-02T02:58:04;30.17;;;7.80;;
31424;SDS011;18054;51.572;7.372;2023-07-02T03:00:32;24.73;;;6.97;;
31424;SDS011;18054;51.572;7.372;2023-07-02T03:03:00;21.45;;;6.82;;
31424;SDS011;18054;51.572;7.372;2023-07-02T03:05:29;21.35;;;7.82;;
31424;SDS011;18054;51.572;7.372;2023-07-02T03:10:25;17.15;;;8.00;;
31424;SDS011;18054;51.572;7.372;2023-07-02T03:12:54;24.48;;;8.15;;
31424;SDS011;18054;51.572;7.372;2023-07-02T03:15:22;21.27;;;7.40;;
31424;SDS011;18054;51.572;7.372;2023-07-02T03:17:49;22.27;;;7.95;;
31424;SDS011;18054;51.572;7.372;2023-07-02T03:20:16;17.23;;;8.02;;
31424;SDS011;18054;51.572;7.372;2023-07-02T03:22:44;24.83;;;9.05;;
31424;SDS011;18054;51.572;7.372;2023-07-02T03:25:11;23.67;;;8.73;;
31424;SDS011;18054;51.572;7.372;2023-07-02T03:27:40;22.10;;;8.90;;
31424;SDS011;18054;51.572;7.372;2023-07-02T03:30:08;23.50;;;10.02;;
31424;SDS011;18054;51.572;7.372;2023-07-02T03:32:35;23.13;;;9.60;;
31424;SDS011;18054;51.572;7.372;2023-07-02T03:35:03;24.63;;;9.23;;
31424;SDS011;18054;51.572;7.372;2023-07-02T03:37:30;24.67;;;9.77;;
31424;SDS011;18054;51.572;7.372;2023-07-02T03:39:58;28.95;;;9.95;;
31424;SDS011;18054;51.572;7.372;2023-07-02T03:42:25;21.75;;;9.88;;
31424;SDS011;18054;51.572;7.372;2023-07-02T03:44:54;22.15;;;9.43;;
31424;SDS011;18054;51.572;7.372;2023-07-02T03:47:22;27.73;;;9.98;;
31424;SDS011;18054;51.572;7.372;2023-07-02T03:49:49;28.70;;;9.18;;
31424;SDS011;18054;51.572;7.372;2023-07-02T03:52:16;23.25;;;8.90;;
31424;SDS011;18054;51.572;7.372;2023-07-02T03:54:44;27.98;;;10.30;;
31424;SDS011;18054;51.572;7.372;2023-07-02T03:57:11;20.92;;;10.07;;
31424;SDS011;18054;51.572;7.372;2023-07-02T03:59:39;26.50;;;10.65;;
31424;SDS011;18054;51.572;7.372;2023-07-02T04:02:07;27.17;;;8.70;;
31424;SDS011;18054;51.572;7.372;2023-07-02T04:04:35;27.15;;;10.68;;
31424;SDS011;18054;51.572;7.372;2023-07-02T04:07:02;23.52;;;9.88;;
31424;SDS011;18054;51.572;7.372;2023-07-02T04:09:30;29.20;;;10.45;;
31424;SDS011;18054;51.572;7.372;2023-07-02T04:11:59;21.58;;;9.73;;
31424;SDS011;18054;51.572;7.372;2023-07-02T04:14:26;25.40;;;9.32;;
31424;SDS011;18054;51.572;7.372;2023-07-02T04:16:54;24.63;;;9.32;;
31424;SDS011;18054;51.572;7.372;2023-07-02T04:19:23;28.38;;;10.80;;
31424;SDS011;18054;51.572;7.372;2023-07-02T04:21:50;24.98;;;10.63;;
31424;SDS011;18054;51.572;7.372;2023-07-02T04:24:18;25.45;;;9.95;;
31424;SDS011;18054;51.572;7.372;2023-07-02T04:26:46;29.73;;;11.02;;
31424;SDS011;18054;51.572;7.372;2023-07-02T04:29:33;33.28;;;11.05;;
31424;SDS011;18054;51.572;7.372;2023-07-02T04:32:01;23.60;;;9.88;;
31424;SDS011;18054;51.572;7.372;2023-07-02T04:34:30;24.10;;;9.52;;
31424;SDS011;18054;51.572;7.372;2023-07-02T04:36:57;23.40;;;10.68;;
31424;SDS011;18054;51.572;7.372;2023-07-02T04:39:25;30.75;;;11.52;;
31424;SDS011;18054;51.572;7.372;2023-07-02T04:41:52;24.88;;;10.43;;
31424;SDS011;18054;51.572;7.372;2023-07-02T04:44:20;27.55;;;10.55;;
31424;SDS011;18054;51.572;7.372;2023-07-02T04:46:56;25.63;;;11.15;;
31424;SDS011;18054;51.572;7.372;2023-07-02T04:49:23;29.00;;;11.45;;
31424;SDS011;18054;51.572;7.372;2023-07-02T04:51:52;30.77;;;11.10;;
31424;SDS011;18054;51.572;7.372;2023-07-02T04:54:20;26.20;;;11.43;;
31424;SDS011;18054;51.572;7.372;2023-07-02T04:59:15;27.92;;;10.82;;
31424;SDS011;18054;51.572;7.372;2023-07-02T05:01:43;32.75;;;10.85;;
31424;SDS011;18054;51.572;7.372;2023-07-02T05:04:11;29.52;;;11.95;;
31424;SDS011;18054;51.572;7.372;2023-07-02T05:06:39;31.92;;;12.93;;
31424;SDS011;18054;51.572;7.372;2023-07-02T05:09:07;33.08;;;12.88;;
31424;SDS011;18054;51.572;7.372;2023-07-02T05:11:35;33.28;;;12.43;;
31424;SDS011;18054;51.572;7.372;2023-07-02T05:14:02;36.88;;;12.68;;
31424;SDS011;18054;51.572;7.372;2023-07-02T05:16:30;27.90;;;12.98;;
31424;SDS011;18054;51.572;7.372;2023-07-02T05:18:57;37.90;;;13.85;;
31424;SDS011;18054;51.572;7.372;2023-07-02T05:21:25;33.88;;;13.35;;
31424;SDS011;18054;51.572;7.372;2023-07-02T05:23:52;33.38;;;14.27;;
31424;SDS011;18054;51.572;7.372;2023-07-02T05:26:21;30.33;;;14.20;;
31424;SDS011;18054;51.572;7.372;2023-07-02T05:28:48;40.72;;;15.60;;
31424;SDS011;18054;51.572;7.372;2023-07-02T05:31:16;33.03;;;14.60;;
31424;SDS011;18054;51.572;7.372;2023-07-02T05:33:43;39.25;;;15.90;;
31424;SDS011;18054;51.572;7.372;2023-07-02T05:36:10;45.35;;;16.63;;
31424;SDS011;18054;51.572;7.372;2023-07-02T05:38:38;39.03;;;18.02;;
31424;SDS011;18054;51.572;7.372;2023-07-02T05:41:05;41.03;;;17.23;;
31424;SDS011;18054;51.572;7.372;2023-07-02T05:43:34;40.42;;;18.20;;
31424;SDS011;18054;51.572;7.372;2023-07-02T05:46:02;42.97;;;17.15;;
31424;SDS011;18054;51.572;7.372;2023-07-02T05:48:29;43.70;;;18.35;;
31424;SDS011;18054;51.572;7.372;2023-07-02T05:50:56;45.20;;;18.42;;
31424;SDS011;18054;51.572;7.372;2023-07-02T05:53:24;36.35;;;17.05;;
31424;SDS011;18054;51.572;7.372;2023-07-02T05:55:51;43.05;;;18.10;;
31424;SDS011;18054;51.572;7.372;2023-07-02T05:58:19;36.35;;;18.60;;
31424;SDS011;18054;51.572;7.372;2023-07-02T06:00:55;34.05;;;16.63;;
31424;SDS011;18054;51.572;7.372;2023-07-02T06:03:23;40.03;;;17.80;;
31424;SDS011;18054;51.572;7.372;2023-07-02T06:05:50;39.42;;;18.88;;
31424;SDS011;18054;51.572;7.372;2023-07-02T06:08:18;37.05;;;16.27;;
31424;SDS011;18054;51.572;7.372;2023-07-02T06:10:46;39.63;;;17.13;;
31424;SDS011;18054;51.572;7.372;2023-07-02T06:13:14;44.42;;;18.08;;
31424;SDS011;18054;51.572;7.372;2023-07-02T06:15:42;44.03;;;17.52;;
31424;SDS011;18054;51.572;7.372;2023-07-02T06:18:11;43.47;;;18.13;;
31424;SDS011;18054;51.572;7.372;2023-07-02T06:20:38;52.88;;;16.48;;
31424;SDS011;18054;51.572;7.372;2023-07-02T06:23:06;36.78;;;15.73;;
31424;SDS011;18054;51.572;7.372;2023-07-02T06:25:33;37.38;;;15.57;;
31424;SDS011;18054;51.572;7.372;2023-07-02T06:28:01;40.58;;;16.10;;
31424;SDS011;18054;51.572;7.372;2023-07-02T06:30:28;52.70;;;17.30;;
31424;SDS011;18054;51.572;7.372;2023-07-02T06:32:56;44.90;;;15.73;;
31424;SDS011;18054;51.572;7.372;2023-07-02T06:35:24;31.27;;;14.75;;
31424;SDS011;18054;51.572;7.372;2023-07-02T06:37:52;43.13;;;14.43;;
31424;SDS011;18054;51.572;7.372;2023-07-02T06:40:19;33.10;;;13.55;;
31424;SDS011;18054;51.572;7.372;2023-07-02T06:42:47;39.15;;;16.77;;
31424;SDS011;18054;51.572;7.372;2023-07-02T06:45:14;35.22;;;14.55;;
31424;SDS011;18054;51.572;7.372;2023-07-02T06:47:42;41.50;;;17.20;;
31424;SDS011;18054;51.572;7.372;2023-07-02T06:50:09;33.45;;;15.07;;
31424;SDS011;18054;51.572;7.372;2023-07-02T06:52:38;37.17;;;15.82;;
31424;SDS011;18054;51.572;7.372;2023-07-02T06:55:05;39.35;;;15.43;;
31424;SDS011;18054;51.572;7.372;2023-07-02T06:57:33;32.60;;;14.43;;
31424;SDS011;18054;51.572;7.372;2023-07-02T07:00:00;36.97;;;13.30;;
31424;SDS011;18054;51.572;7.372;2023-07-02T07:02:30;31.45;;;13.07;;
31424;SDS011;18054;51.572;7.372;2023-07-02T07:04:57;34.78;;;12.63;;
31424;SDS011;18054;51.572;7.372;2023-07-02T07:07:25;34.42;;;12.10;;
31424;SDS011;18054;51.572;7.372;2023-07-02T07:09:54;34.22;;;12.15;;
31424;SDS011;18054;51.572;7.372;2023-07-02T07:12:22;34.08;;;12.90;;
31424;SDS011;18054;51.572;7.372;2023-07-02T07:14:49;41.60;;;14.27;;
31424;SDS011;18054;51.572;7.372;2023-07-02T07:17:17;39.75;;;15.27;;
31424;SDS011;18054;51.572;7.372;2023-07-02T07:19:44;34.67;;;14.23;;
31424;SDS011;18054;51.572;7.372;2023-07-02T07:22:12;31.23;;;13.38;;
31424;SDS011;18054;51.572;7.372;2023-07-02T07:24:41;31.25;;;13.82;;
31424;SDS011;18054;51.572;7.372;2023-07-02T07:27:09;42.97;;;14.70;;
31424;SDS011;18054;51.572;7.372;2023-07-02T07:29:37;28.77;;;10.60;;
31424;SDS011;18054;51.572;7.372;2023-07-02T07:32:05;28.80;;;12.02;;
31424;SDS011;18054;51.572;7.372;2023-07-02T07:34:32;29.10;;;10.90;;
31424;SDS011;18054;51.572;7.372;2023-07-02T07:37:00;24.63;;;10.80;;
31424;SDS011;18054;51.572;7.372;2023-07-02T07:39:27;33.33;;;11.20;;
31424;SDS011;18054;51.572;7.372;2023-07-02T07:41:54;36.20;;;10.85;;
31424;SDS011;18054;51.572;7.372;2023-07-02T07:44:24;28.52;;;10.32;;
31424;SDS011;18054;51.572;7.372;2023-07-02T07:46:55;30.33;;;11.15;;
31424;SDS011;18054;51.572;7.372;2023-07-02T07:51:50;28.15;;;10.93;;
31424;SDS011;18054;51.572;7.372;2023-07-02T07:54:18;27.80;;;10.82;;
31424;SDS011;18054;51.572;7.372;2023-07-02T07:56:45;25.83;;;10.90;;
31424;SDS011;18054;51.572;7.372;2023-07-02T07:59:13;27.95;;;10.45;;
31424;SDS011;18054;51.572;7.372;2023-07-02T08:01:42;27.17;;;10.43;;
31424;SDS011;18054;51.572;7.372;2023-07-02T08:04:09;31.00;;;10.57;;
31424;SDS011;18054;51.572;7.372;2023-07-02T08:06:37;25.25;;;11.13;;
31424;SDS011;18054;51.572;7.372;2023-07-02T08:09:04;22.83;;;9.60;;
31424;SDS011;18054;51.572;7.372;2023-07-02T08:11:32;31.92;;;10.40;;
31424;SDS011;18054;51.572;7.372;2023-07-02T08:14:00;28.25;;;11.05;;
31424;SDS011;18054;51.572;7.372;2023-07-02T08:16:27;27.55;;;10.68;;
31424;SDS011;18054;51.572;7.372;2023-07-02T08:18:56;30.13;;;11.32;;
31424;SDS011;18054;51.572;7.372;2023-07-02T08:21:24;27.30;;;11.25;;
31424;SDS011;18054;51.572;7.372;2023-07-02T08:23:51;27.25;;;10.55;;
31424;SDS011;18054;51.572;7.372;2023-07-02T08:28:46;33.90;;;9.52;;
31424;SDS011;18054;51.572;7.372;2023-07-02T08:31:14;23.63;;;9.30;;
31424;SDS011;18054;51.572;7.372;2023-07-02T08:33:41;26.58;;;9.95;;
31424;SDS011;18054;51.572;7.372;2023-07-02T08:36:10;26.48;;;9.70;;
31424;SDS011;18054;51.572;7.372;2023-07-02T08:38:39;24.35;;;9.80;;
31424;SDS011;18054;51.572;7.372;2023-07-02T08:41:09;24.38;;;9.68;;
31424;SDS011;18054;51.572;7.372;2023-07-02T08:43:36;25.10;;;9.80;;
31424;SDS011;18054;51.572;7.372;2023-07-02T08:48:33;37.55;;;10.02;;
31424;SDS011;18054;51.572;7.372;2023-07-02T08:51:02;26.95;;;10.10;;
31424;SDS011;18054;51.572;7.372;2023-07-02T08:53:31;29.33;;;10.50;;
31424;SDS011;18054;51.572;7.372;2023-07-02T08:56:00;27.80;;;10.80;;
31424;SDS011;18054;51.572;7.372;2023-07-02T08:58:27;32.08;;;10.45;;
31424;SDS011;18054;51.572;7.372;2023-07-02T09:01:05;29.63;;;10.75;;
31424;SDS011;18054;51.572;7.372;2023-07-02T09:03:33;21.33;;;10.50;;
31424;SDS011;18054;51.572;7.372;2023-07-02T09:08:28;21.30;;;9.25;;
31424;SDS011;18054;51.572;7.372;2023-07-02T09:11:06;32.75;;;10.05;;
31424;SDS011;18054;51.572;7.372;2023-07-02T09:13:43;23.55;;;10.07;;
31424;SDS011;18054;51.572;7.372;2023-07-02T09:16:20;30.60;;;11.10;;
31424;SDS011;18054;51.572;7.372;2023-07-02T09:18:54;24.58;;;10.20;;
31424;SDS011;18054;51.572;7.372;2023-07-02T09:21:22;24.15;;;9.63;;
31424;SDS011;18054;51.572;7.372;2023-07-02T09:23:49;21.13;;;8.80;;
31424;SDS011;18054;51.572;7.372;2023-07-02T09:26:21;27.58;;;8.25;;
31424;SDS011;18054;51.572;7.372;2023-07-02T09:28:49;22.42;;;8.80;;
31424;SDS011;18054;51.572;7.372;2023-07-02T09:31:17;24.73;;;8.70;;
31424;SDS011;18054;51.572;7.372;2023-07-02T09:33:44;25.25;;;8.90;;
31424;SDS011;18054;51.572;7.372;2023-07-02T09:41:07;25.58;;;8.65;;
31424;SDS011;18054;51.572;7.372;2023-07-02T09:43:36;23.75;;;8.43;;
31424;SDS011;18054;51.572;7.372;2023-07-02T09:46:03;18.17;;;7.45;;
31424;SDS011;18054;51.572;7.372;2023-07-02T09:48:33;19.02;;;7.72;;
31424;SDS011;18054;51.572;7.372;2023-07-02T09:51:02;29.40;;;9.00;;
31424;SDS011;18054;51.572;7.372;2023-07-02T09:55:57;25.27;;;8.27;;
31424;SDS011;18054;51.572;7.372;2023-07-02T09:58:24;21.85;;;8.05;;
31424;SDS011;18054;51.572;7.372;2023-07-02T10:00:53;17.90;;;7.80;;
31424;SDS011;18054;51.572;7.372;2023-07-02T10:03:30;19.58;;;8.00;;
31424;SDS011;18054;51.572;7.372;2023-07-02T10:06:04;22.48;;;7.30;;
31424;SDS011;18054;51.572;7.372;2023-07-02T10:08:32;27.00;;;8.50;;
31424;SDS011;18054;51.572;7.372;2023-07-02T10:11:06;20.58;;;8.70;;
31424;SDS011;18054;51.572;7.372;2023-07-02T10:13:33;22.77;;;8.30;;
31424;SDS011;18054;51.572;7.372;2023-07-02T10:16:02;24.48;;;8.05;;
31424;SDS011;18054;51.572;7.372;2023-07-02T10:18:30;25.02;;;8.43;;
31424;SDS011;18054;51.572;7.372;2023-07-02T10:23:34;26.60;;;7.80;;
31424;SDS011;18054;51.572;7.372;2023-07-02T10:26:13;20.10;;;7.78;;
31424;SDS011;18054;51.572;7.372;2023-07-02T10:28:41;25.75;;;8.10;;
31424;SDS011;18054;51.572;7.372;2023-07-02T10:31:20;27.63;;;8.02;;
31424;SDS011;18054;51.572;7.372;2023-07-02T10:33:47;18.98;;;8.13;;
31424;SDS011;18054;51.572;7.372;2023-07-02T10:36:18;16.92;;;7.53;;
31424;SDS011;18054;51.572;7.372;2023-07-02T10:38:47;23.05;;;8.52;;
31424;SDS011;18054;51.572;7.372;2023-07-02T10:41:22;21.52;;;8.27;;
31424;SDS011;18054;51.572;7.372;2023-07-02T10:43:50;22.30;;;8.63;;
31424;SDS011;18054;51.572;7.372;2023-07-02T10:46:19;26.25;;;8.35;;
31424;SDS011;18054;51.572;7.372;2023-07-02T10:48:51;18.05;;;7.80;;
31424;SDS011;18054;51.572;7.372;2023-07-02T10:51:18;21.25;;;8.45;;
31424;SDS011;18054;51.572;7.372;2023-07-02T10:53:46;19.23;;;7.95;;
31424;SDS011;18054;51.572;7.372;2023-07-02T10:56:16;24.98;;;8.18;;
31424;SDS011;18054;51.572;7.372;2023-07-02T11:01:12;21.23;;;7.75;;
31424;SDS011;18054;51.572;7.372;2023-07-02T11:03:41;13.85;;;6.97;;
31424;SDS011;18054;51.572;7.372;2023-07-02T11:06:09;23.08;;;7.72;;
31424;SDS011;18054;51.572;7.372;2023-07-02T11:08:37;19.50;;;7.47;;
31424;SDS011;18054;51.572;7.372;2023-07-02T11:11:06;19.52;;;7.57;;
31424;SDS011;18054;51.572;7.372;2023-07-02T11:13:33;23.25;;;9.07;;
31424;SDS011;18054;51.572;7.372;2023-07-02T11:16:01;20.73;;;7.90;;
31424;SDS011;18054;51.572;7.372;2023-07-02T11:18:30;17.45;;;7.28;;
31424;SDS011;18054;51.572;7.372;2023-07-02T11:21:08;20.88;;;8.13;;
31424;SDS011;18054;51.572;7.372;2023-07-02T11:23:36;22.92;;;8.65;;
31424;SDS011;18054;51.572;7.372;2023-07-02T11:26:04;22.00;;;7.50;;
31424;SDS011;18054;51.572;7.372;2023-07-02T11:28:31;15.77;;;7.85;;
31424;SDS011;18054;51.572;7.372;2023-07-02T11:31:03;19.95;;;7.43;;
31424;SDS011;18054;51.572;7.372;2023-07-02T11:33:34;22.50;;;8.70;;
31424;SDS011;18054;51.572;7.372;2023-07-02T11:36:03;22.73;;;7.43;;
31424;SDS011;18054;51.572;7.372;2023-07-02T11:38:32;25.10;;;7.88;;
31424;SDS011;18054;51.572;7.372;2023-07-02T11:41:00;16.65;;;6.82;;
31424;SDS011;18054;51.572;7.372;2023-07-02T11:43:29;20.83;;;7.00;;
31424;SDS011;18054;51.572;7.372;2023-07-02T11:45:56;22.45;;;7.22;;
31424;SDS011;18054;51.572;7.372;2023-07-02T11:48:24;19.85;;;7.10;;
31424;SDS011;18054;51.572;7.372;2023-07-02T11:50:51;21.02;;;7.57;;
31424;SDS011;18054;51.572;7.372;2023-07-02T11:53:20;18.30;;;6.88;;
31424;SDS011;18054;51.572;7.372;2023-07-02T11:55:48;20.42;;;7.68;;
31424;SDS011;18054;51.572;7.372;2023-07-02T11:58:16;21.13;;;7.88;;
31424;SDS011;18054;51.572;7.372;2023-07-02T12:00:43;26.38;;;7.00;;
31424;SDS011;18054;51.572;7.372;2023-07-02T12:03:10;18.60;;;7.60;;
31424;SDS011;18054;51.572;7.372;2023-07-02T12:05:39;21.20;;;6.70;;
31424;SDS011;18054;51.572;7.372;2023-07-02T12:08:06;17.90;;;6.53;;
31424;SDS011;18054;51.572;7.372;2023-07-02T12:10:36;19.23;;;7.07;;
31424;SDS011;18054;51.572;7.372;2023-07-02T12:13:04;19.52;;;6.63;;
31424;SDS011;18054;51.572;7.372;2023-07-02T12:20:26;20.20;;;8.10;;
31424;SDS011;18054;51.572;7.372;2023-07-02T12:22:53;18.23;;;6.75;;
31424;SDS011;18054;51.572;7.372;2023-07-02T12:25:24;33.13;;;7.45;;
31424;SDS011;18054;51.572;7.372;2023-07-02T12:30:21;14.98;;;6.25;;
31424;SDS011;18054;51.572;7.372;2023-07-02T12:32:48;16.17;;;6.32;;
31424;SDS011;18054;51.572;7.372;2023-07-02T12:35:15;14.55;;;6.35;;
31424;SDS011;18054;51.572;7.372;2023-07-02T12:37:43;16.20;;;6.57;;
31424;SDS011;18054;51.572;7.372;2023-07-02T12:40:11;16.10;;;6.43;;
31424;SDS011;18054;51.572;7.372;2023-07-02T12:45:07;17.30;;;6.93;;
31424;SDS011;18054;51.572;7.372;2023-07-02T12:47:36;18.70;;;7.03;;
31424;SDS011;18054;51.572;7.372;2023-07-02T12:50:03;18.45;;;7.13;;
31424;SDS011;18054;51.572;7.372;2023-07-02T12:52:31;15.40;;;5.72;;
31424;SDS011;18054;51.572;7.372;2023-07-02T12:54:59;16.33;;;6.63;;
31424;SDS011;18054;51.572;7.372;2023-07-02T12:57:26;18.95;;;7.43;;
31424;SDS011;18054;51.572;7.372;2023-07-02T12:59:54;16.17;;;5.97;;
31424;SDS011;18054;51.572;7.372;2023-07-02T13:02:22;21.23;;;7.03;;
31424;SDS011;18054;51.572;7.372;2023-07-02T13:04:51;17.35;;;6.40;;
31424;SDS011;18054;51.572;7.372;2023-07-02T13:07:19;18.98;;;7.80;;
31424;SDS011;18054;51.572;7.372;2023-07-02T13:22:04;16.58;;;7.15;;
31424;SDS011;18054;51.572;7.372;2023-07-02T13:24:32;17.17;;;6.88;;
31424;SDS011;18054;51.572;7.372;2023-07-02T13:27:02;16.98;;;6.72;;
31424;SDS011;18054;51.572;7.372;2023-07-02T13:29:29;19.45;;;6.75;;
31424;SDS011;18054;51.572;7.372;2023-07-02T13:39:20;16.85;;;6.72;;
31424;SDS011;18054;51.572;7.372;2023-07-02T13:41:47;14.85;;;6.40;;
31424;SDS011;18054;51.572;7.372;2023-07-02T13:44:15;16.92;;;6.43;;
31424;SDS011;18054;51.572;7.372;2023-07-02T13:46:43;16.77;;;6.57;;
31424;SDS011;18054;51.572;7.372;2023-07-02T13:54:05;18.52;;;6.97;;
31424;SDS011;18054;51.572;7.372;2023-07-02T13:56:34;15.05;;;6.55;;
31424;SDS011;18054;51.572;7.372;2023-07-02T13:59:03;21.33;;;7.57;;
31424;SDS011;18054;51.572;7.372;2023-07-02T14:01:31;19.00;;;7.18;;
31424;SDS011;18054;51.572;7.372;2023-07-02T14:04:00;24.52;;;7.53;;
31424;SDS011;18054;51.572;7.372;2023-07-02T14:06:27;24.92;;;6.97;;
31424;SDS011;18054;51.572;7.372;2023-07-02T14:08:55;17.70;;;7.30;;
31424;SDS011;18054;51.572;7.372;2023-07-02T14:11:23;21.45;;;7.57;;
31424;SDS011;18054;51.572;7.372;2023-07-02T14:13:51;22.05;;;8.23;;
31424;SDS011;18054;51.572;7.372;2023-07-02T14:16:19;18.88;;;7.55;;
31424;SDS011;18054;51.572;7.372;2023-07-02T14:18:48;16.95;;;8.07;;
31424;SDS011;18054;51.572;7.372;2023-07-02T14:21:15;19.65;;;8.38;;
31424;SDS011;18054;51.572;7.372;2023-07-02T14:23:43;23.25;;;8.45;;
31424;SDS011;18054;51.572;7.372;2023-07-02T14:26:10;21.42;;;8.32;;
31424;SDS011;18054;51.572;7.372;2023-07-02T14:28:37;32.53;;;11.98;;
31424;SDS011;18054;51.572;7.372;2023-07-02T14:33:34;21.13;;;8.32;;
31424;SDS011;18054;51.572;7.372;2023-07-02T14:36:03;23.15;;;9.05;;
31424;SDS011;18054;51.572;7.372;2023-07-02T14:38:30;22.13;;;8.75;;
31424;SDS011;18054;51.572;7.372;2023-07-02T14:40:59;24.25;;;8.50;;
31424;SDS011;18054;51.572;7.372;2023-07-02T14:43:27;28.63;;;8.43;;
31424;SDS011;18054;51.572;7.372;2023-07-02T14:45:56;21.33;;;8.75;;
31424;SDS011;18054;51.572;7.372;2023-07-02T14:48:24;26.45;;;9.07;;
31424;SDS011;18054;51.572;7.372;2023-07-02T14:53:20;22.67;;;7.82;;
31424;SDS011;18054;51.572;7.372;2023-07-02T14:55:48;24.00;;;9.32;;
31424;SDS011;18054;51.572;7.372;2023-07-02T14:58:16;26.90;;;9.73;;
31424;SDS011;18054;51.572;7.372;2023-07-02T15:00:44;21.40;;;9.20;;
31424;SDS011;18054;51.572;7.372;2023-07-02T15:03:12;22.80;;;8.75;;
31424;SDS011;18054;51.572;7.372;2023-07-02T15:05:40;23.58;;;8.93;;
31424;SDS011;18054;51.572;7.372;2023-07-02T15:08:08;21.95;;;8.45;;
31424;SDS011;18054;51.572;7.372;2023-07-02T15:10:39;24.10;;;9.40;;
31424;SDS011;18054;51.572;7.372;2023-07-02T15:13:07;26.00;;;9.10;;
31424;SDS011;18054;51.572;7.372;2023-07-02T15:15:35;32.17;;;9.55;;
31424;SDS011;18054;51.572;7.372;2023-07-02T15:18:03;23.70;;;9.07;;
31424;SDS011;18054;51.572;7.372;2023-07-02T15:20:30;23.48;;;8.43;;
31424;SDS011;18054;51.572;7.372;2023-07-02T15:22:58;21.40;;;8.52;;
31424;SDS011;18054;51.572;7.372;2023-07-02T15:25:25;20.98;;;8.43;;
31424;SDS011;18054;51.572;7.372;2023-07-02T15:27:54;26.08;;;9.00;;
31424;SDS011;18054;51.572;7.372;2023-07-02T15:30:22;21.80;;;8.48;;
31424;SDS011;18054;51.572;7.372;2023-07-02T15:32:49;25.45;;;8.68;;
31424;SDS011;18054;51.572;7.372;2023-07-02T15:35:20;26.58;;;8.80;;
31424;SDS011;18054;51.572;7.372;2023-07-02T15:37:50;24.40;;;9.00;;
31424;SDS011;18054;51.572;7.372;2023-07-02T15:40:17;29.45;;;9.20;;
31424;SDS011;18054;51.572;7.372;2023-07-02T15:42:45;27.45;;;9.20;;
31424;SDS011;18054;51.572;7.372;2023-07-02T15:45:14;22.27;;;8.80;;
31424;SDS011;18054;51.572;7.372;2023-07-02T15:47:41;29.80;;;9.32;;
31424;SDS011;18054;51.572;7.372;2023-07-02T15:50:09;26.55;;;8.75;;